Terminal Aerodrome Forecast
Issued by NWS

Home | Current Version | Previous Version | Text Only | Print | Product List | Glossary On
Versions: 1 2 3 4 5 6 7 8 9 10 11 12 13 14 15 16
000
FTUS43 KICT 241142
TAFCNU
TAF
KCNU 241142Z 2412/2512 14008KT P6SM SCT015 OVC025
     FM241300 15014KT P6SM SCT009 OVC015
     FM241800 18021G30KT P6SM SCT015 BKN030
     FM250600 18015G22KT P6SM VCTS SCT009 BKN015CB=

USA.gov is the U.S. government's official web portal to all federal, state and local government web resources and services.